Time;durP1;ratioP1;P1;durP2;ratioP2;P2;SDS_P1;SDS_P2;PMS_P1;PMS_P2;Temp;Humidity;BMP_temperature;BMP_pressure;BME280_temperature;BME280_humidity;BME280_pressure;Samples;Min_cycle;Max_cycle;Signal;HPM_P1;HPM_P2
2022/01/31 00:01:10;;;;;;;1.95;0.63;;;;;;;-2.48;68.56;100696.94;4921173;29;20052;-89
2022/01/31 00:03:35;;;;;;;3.55;0.70;;;;;;;-1.89;68.31;100798.69;5025661;23;20106;-88
2022/01/31 00:06:02;;;;;;;5.03;0.70;;;;;;;-2.59;67.70;100662.66;4988323;23;20060;-87
2022/01/31 00:16:17;;;;;;;4.85;0.60;;;;;;;-2.18;67.04;100683.16;5308867;23;20136;-88
2022/01/31 00:18:42;;;;;;;5.13;0.60;;;;;;;-2.38;67.50;100670.72;4940977;29;20020;-88
2022/01/31 00:21:08;;;;;;;1.48;0.47;;;;;;;-1.76;67.08;100782.75;4940607;29;20028;-86
2022/01/31 00:23:34;;;;;;;2.00;0.50;;;;;;;-2.56;66.89;100651.88;4924796;29;20039;-88
2022/01/31 00:25:59;;;;;;;3.42;0.60;;;;;;;-2.42;66.70;100659.56;4924404;29;20017;-88
2022/01/31 00:28:25;;;;;;;3.63;0.63;;;;;;;-1.70;66.70;100759.34;4923940;29;20075;-89
2022/01/31 00:33:26;;;;;;;1.52;0.55;;;;;;;-2.71;67.31;100598.59;4972809;23;20275;-89
2022/01/31 00:35:51;;;;;;;2.60;0.50;;;;;;;-1.75;67.69;100742.25;4924139;29;20051;-89
2022/01/31 00:40:52;;;;;;;3.35;0.55;;;;;;;-2.93;68.09;100570.44;5688028;23;20032;-88
2022/01/31 00:58:49;;;;;;;2.15;0.77;;;;;;;-2.11;68.60;100694.06;5085066;23;20062;-87
2022/01/31 01:01:14;;;;;;;1.60;0.50;;;;;;;-2.41;68.46;100637.53;4927764;29;20028;-88
2022/01/31 01:03:40;;;;;;;2.90;0.60;;;;;;;-2.90;68.74;100550.94;5118007;23;20015;-82
2022/01/31 01:08:41;;;;;;;3.53;0.68;;;;;;;-2.72;69.28;100570.56;5165837;23;20044;-89
2022/01/31 01:24:02;;;;;;;3.70;0.88;;;;;;;-2.99;70.15;100506.91;5816538;23;20043;-88
2022/01/31 01:26:28;;;;;;;1.70;0.50;;;;;;;-2.93;70.35;100516.97;4909161;29;20088;-88
2022/01/31 01:28:53;;;;;;;2.28;0.50;;;;;;;-2.75;70.25;100539.19;4926124;29;20038;-87
2022/01/31 01:39:05;;;;;;;5.28;0.50;;;;;;;-2.71;68.97;100521.41;5718168;23;20032;-85
2022/01/31 01:41:32;;;;;;;3.75;0.38;;;;;;;-2.76;68.75;100507.72;4927450;29;20031;-88
2022/01/31 01:43:58;;;;;;;1.77;0.50;;;;;;;-2.79;68.95;100486.91;4927334;29;20012;-88
2022/01/31 01:46:23;;;;;;;3.85;0.68;;;;;;;-2.60;68.93;100513.47;4943651;29;20029;-88
2022/01/31 01:48:49;;;;;;;3.13;0.40;;;;;;;-2.18;69.07;100583.00;4942937;29;20044;-89
2022/01/31 01:51:15;;;;;;;3.35;0.55;;;;;;;-2.89;68.74;100479.72;4943471;29;20064;-88
2022/01/31 01:53:41;;;;;;;3.67;0.82;;;;;;;-1.65;69.39;100658.75;4943445;29;20024;-89
2022/01/31 01:56:08;;;;;;;2.75;0.63;;;;;;;-2.78;68.59;100497.34;4942524;29;20095;-88
2022/01/31 02:04:14;;;;;;;3.15;0.50;;;;;;;-1.71;68.55;100646.91;5290243;23;20031;-78
2022/01/31 03:43:20;;;;;;;4.45;0.70;;;;;;;-1.77;69.58;100506.75;6024788;23;22140;31
2022/01/31 05:30:48;;;;;;;4.63;0.90;;;;;;;-3.35;71.58;100261.47;5009930;23;20260;-85
2022/01/31 05:35:49;;;;;;;1.90;0.75;;;;;;;-3.41;72.06;100248.81;5580399;23;20077;-86
2022/01/31 05:40:50;;;;;;;5.85;0.80;;;;;;;-3.42;72.39;100240.09;5838575;23;20117;-86
2022/01/31 05:45:51;;;;;;;3.13;1.10;;;;;;;-2.66;72.34;100371.72;5001626;23;20044;-87
2022/01/31 05:48:18;;;;;;;4.22;0.80;;;;;;;-3.56;72.60;100237.75;4925245;29;20044;-88
2022/01/31 05:55:54;;;;;;;2.90;0.98;;;;;;;-3.43;73.21;100282.31;5023255;23;20088;-82
2022/01/31 06:00:55;;;;;;;5.22;1.13;;;;;;;-3.20;73.11;100309.44;5210529;23;20061;-85
2022/01/31 06:03:21;;;;;;;1.92;0.70;;;;;;;-2.80;73.00;100385.19;4923060;29;20073;-86
2022/01/31 06:05:47;;;;;;;5.85;1.00;;;;;;;-3.44;72.81;100292.00;5190924;23;20022;-83
2022/01/31 06:08:12;;;;;;;4.63;1.02;;;;;;;-3.58;73.41;100279.94;5043382;23;20042;-87
2022/01/31 06:10:43;;;;;;;5.45;1.10;;;;;;;-3.48;73.26;100277.41;4923617;29;20030;-88
2022/01/31 06:23:29;;;;;;;2.35;0.70;;;;;;;-4.07;73.80;100190.97;5302132;23;20041;-84
2022/01/31 06:25:55;;;;;;;3.97;0.93;;;;;;;-3.77;73.87;100237.66;4918606;29;20017;-86
2022/01/31 06:28:21;;;;;;;5.30;0.95;;;;;;;-2.77;74.26;100422.63;4921579;29;20020;-85
2022/01/31 06:30:47;;;;;;;5.10;1.17;;;;;;;-3.56;74.53;100292.97;4919404;29;20008;-82
2022/01/31 06:33:16;;;;;;;2.50;0.90;;;;;;;-3.41;74.18;100296.16;4922241;29;20033;-84
2022/01/31 06:35:45;;;;;;;5.35;3.05;;;;;;;-3.41;74.71;100291.75;4919167;29;20096;-84
2022/01/31 06:38:11;;;;;;;13.30;5.18;;;;;;;-2.75;74.58;100394.38;4918974;29;20000;-84
2022/01/31 06:40:37;;;;;;;5.55;3.50;;;;;;;-3.76;74.38;100231.44;4922982;29;20008;-85
2022/01/31 06:43:03;;;;;;;11.32;3.65;;;;;;;-3.93;74.73;100221.44;4921430;29;20043;-83
2022/01/31 06:45:28;;;;;;;5.78;1.65;;;;;;;-3.68;74.45;100246.59;4903845;29;20074;-83
2022/01/31 06:47:54;;;;;;;4.43;1.25;;;;;;;-2.67;74.59;100407.78;4920704;29;20089;-84
2022/01/31 06:50:20;;;;;;;7.22;3.17;;;;;;;-2.65;74.66;100399.72;4921016;29;20105;-84
2022/01/31 06:52:50;;;;;;;11.43;3.28;;;;;;;-2.69;74.65;100404.41;4917666;29;20041;-84
2022/01/31 06:55:19;;;;;;;8.10;2.83;;;;;;;-4.07;74.84;100196.25;4920328;29;20039;-84
2022/01/31 06:57:45;;;;;;;6.07;2.10;;;;;;;-3.88;74.82;100238.47;4920694;29;20039;-84
2022/01/31 07:00:12;;;;;;;4.93;1.92;;;;;;;-3.59;74.67;100278.25;4920767;29;20100;-84
2022/01/31 07:02:38;;;;;;;7.93;2.45;;;;;;;-3.88;75.55;100238.47;4921506;29;20044;-84
2022/01/31 07:05:05;;;;;;;7.22;1.80;;;;;;;-4.09;75.86;100227.88;4922730;29;20017;-84
2022/01/31 07:07:32;;;;;;;7.85;2.05;;;;;;;-4.04;75.40;100238.88;4921811;29;20017;-84
2022/01/31 07:10:01;;;;;;;5.53;1.52;;;;;;;-2.91;75.70;100420.28;4922209;29;20108;-85
2022/01/31 07:12:36;;;;;;;8.23;1.27;;;;;;;-3.66;76.28;100324.41;4922062;29;20033;-83
2022/01/31 07:15:07;;;;;;;5.70;1.20;;;;;;;-4.39;76.42;100209.22;4918361;29;20029;-85
2022/01/31 07:17:35;;;;;;;3.70;1.35;;;;;;;-3.91;75.94;100275.53;4921093;29;20029;-85
2022/01/31 07:20:05;;;;;;;5.82;1.17;;;;;;;-2.96;76.92;100440.84;4920634;29;20024;-84
2022/01/31 07:22:36;;;;;;;8.63;1.30;;;;;;;-3.58;76.59;100343.03;4918295;29;20036;-79
2022/01/31 07:25:06;;;;;;;3.70;1.00;;;;;;;-3.99;76.98;100277.91;4917363;29;20054;-82
2022/01/31 07:27:32;;;;;;;2.75;1.10;;;;;;;-4.02;77.18;100276.34;4910800;29;20035;-82
2022/01/31 07:29:57;;;;;;;9.45;1.25;;;;;;;-3.02;77.10;100444.78;4914431;29;20072;-81
2022/01/31 07:32:23;;;;;;;5.88;1.63;;;;;;;-3.26;77.41;100404.63;4893832;29;20023;-82
2022/01/31 07:34:52;;;;;;;10.55;1.08;;;;;;;-3.28;77.97;100411.78;4897442;29;20506;-81
2022/01/31 07:37:18;;;;;;;4.68;1.05;;;;;;;-3.16;78.44;100432.72;4910834;29;20028;-82
2022/01/31 07:39:45;;;;;;;8.18;1.80;;;;;;;-3.25;77.37;100391.34;4914404;29;20088;-83
2022/01/31 07:42:10;;;;;;;3.58;0.80;;;;;;;-3.02;78.04;100434.25;4915161;29;20029;-81
2022/01/31 07:44:36;;;;;;;6.47;1.20;;;;;;;-3.28;78.61;100409.16;4906569;29;20032;-80
2022/01/31 07:47:03;;;;;;;2.72;0.70;;;;;;;-2.98;78.12;100441.00;4900578;29;20088;-81
2022/01/31 07:49:28;;;;;;;7.25;1.00;;;;;;;-2.98;77.84;100442.75;4898293;29;20107;-80
2022/01/31 07:51:56;;;;;;;7.05;1.13;;;;;;;-3.01;78.38;100443.84;4900877;29;20123;-80
2022/01/31 07:54:21;;;;;;;3.13;0.90;;;;;;;-3.01;78.44;100432.47;4883178;29;20024;-80
2022/01/31 07:56:47;;;;;;;6.30;1.02;;;;;;;-3.00;78.48;100437.63;4879654;29;20029;-80
2022/01/31 07:59:12;;;;;;;12.40;1.35;;;;;;;-2.94;78.48;100452.94;4898676;29;20127;-80
2022/01/31 08:01:38;;;;;;;5.97;0.80;;;;;;;-2.97;78.17;100442.66;4896201;29;20128;-80
2022/01/31 08:04:03;;;;;;;8.75;1.35;;;;;;;-2.87;78.02;100448.88;4883475;29;20068;-81
2022/01/31 08:06:29;;;;;;;2.63;0.80;;;;;;;-2.77;78.05;100454.25;4902532;29;20023;-80
2022/01/31 08:08:54;;;;;;;6.07;1.10;;;;;;;-2.93;78.25;100437.97;4899738;29;20033;-81
2022/01/31 08:11:21;;;;;;;4.10;0.90;;;;;;;-2.81;77.97;100452.81;4900257;29;20036;-80
2022/01/31 08:13:46;;;;;;;4.43;1.30;;;;;;;-2.83;78.44;100447.66;4901201;29;20028;-81
2022/01/31 08:16:13;;;;;;;9.23;1.38;;;;;;;-2.80;78.62;100445.75;4904130;29;20104;-81
2022/01/31 08:18:43;;;;;;;4.65;1.10;;;;;;;-2.81;78.43;100439.66;4904968;29;20032;-80
2022/01/31 08:21:10;;;;;;;5.00;1.10;;;;;;;-2.75;78.62;100440.94;4884727;29;20024;-81
2022/01/31 08:23:36;;;;;;;7.18;1.52;;;;;;;-2.69;78.36;100441.28;4901551;29;20045;-80
2022/01/31 08:26:04;;;;;;;8.13;4.45;;;;;;;-2.67;77.84;100443.81;4882415;29;20439;-80
2022/01/31 08:28:37;;;;;;;6.53;2.80;;;;;;;-2.62;77.98;100441.63;4906802;29;20057;-80
2022/01/31 08:31:12;;;;;;;4.03;1.63;;;;;;;-2.66;77.92;100422.59;4918719;29;20075;-80
2022/01/31 08:34:05;;;;;;;9.77;1.67;;;;;;;-2.61;78.00;100430.16;4903510;29;20080;-80
2022/01/31 08:36:26;;;;;;;8.18;1.88;;;;;;;-2.54;78.02;100444.50;4909479;29;20045;-80
2022/01/31 08:38:52;;;;;;;5.82;1.60;;;;;;;-2.64;77.83;100417.22;4896512;29;20039;-81
2022/01/31 08:41:18;;;;;;;10.60;3.28;;;;;;;-2.42;78.02;100442.66;4911227;29;20054;-82
2022/01/31 08:43:44;;;;;;;28.15;13.27;;;;;;;-2.46;78.40;100447.34;4913246;29;20059;-82
2022/01/31 08:46:11;;;;;;;8.55;2.10;;;;;;;-2.34;78.25;100463.13;4904156;29;20021;-79
2022/01/31 08:48:37;;;;;;;6.65;1.63;;;;;;;-2.32;78.34;100453.28;4898717;29;20033;-80
2022/01/31 08:51:06;;;;;;;6.22;1.45;;;;;;;-2.21;78.63;100458.53;4902051;29;20020;-80
2022/01/31 08:53:32;;;;;;;4.10;1.10;;;;;;;-2.12;78.32;100457.75;4898947;29;20107;-80
2022/01/31 08:56:07;;;;;;;3.85;1.10;;;;;;;-2.09;78.42;100452.22;4896685;29;20054;-80
2022/01/31 08:58:33;;;;;;;9.93;1.30;;;;;;;-2.14;78.59;100462.34;4895668;29;20031;-80
2022/01/31 09:01:04;;;;;;;5.82;1.00;;;;;;;-2.08;77.99;100468.91;4901763;29;20060;-80
2022/01/31 09:06:10;;;;;;;4.20;0.93;;;;;;;-2.04;78.96;100465.06;4899512;29;20025;-80
2022/01/31 09:08:37;;;;;;;7.40;1.10;;;;;;;-2.16;78.99;100438.72;4904142;29;20020;-81
2022/01/31 09:11:03;;;;;;;3.45;0.75;;;;;;;-2.06;78.78;100451.97;4884579;29;20036;-79
2022/01/31 09:13:29;;;;;;;4.03;0.90;;;;;;;-1.83;78.00;100465.91;4907752;29;20092;-80
2022/01/31 09:15:54;;;;;;;4.22;0.70;;;;;;;-1.74;78.36;100469.59;4885375;29;20036;-79
2022/01/31 09:18:20;;;;;;;4.22;0.90;;;;;;;-1.70;78.21;100452.53;4898785;29;20028;-80
2022/01/31 09:20:45;;;;;;;6.43;1.10;;;;;;;-1.50;77.86;100466.69;4885233;29;20024;-80
2022/01/31 09:23:11;;;;;;;4.63;1.00;;;;;;;-1.47;78.06;100461.97;4897849;29;20057;-79
2022/01/31 09:25:43;;;;;;;4.50;0.95;;;;;;;-1.52;78.10;100453.63;4902273;29;20474;-80
2022/01/31 09:28:09;;;;;;;5.22;1.08;;;;;;;-1.49;77.89;100463.06;4899757;29;20087;-79
2022/01/31 09:30:35;;;;;;;8.27;0.88;;;;;;;-1.44;77.78;100461.72;4902964;29;20032;-82
2022/01/31 09:33:00;;;;;;;4.07;0.90;;;;;;;-1.27;77.73;100476.13;4902573;29;20340;-79
2022/01/31 09:35:26;;;;;;;5.15;1.17;;;;;;;-1.12;77.01;100481.06;4900336;29;20025;-80
2022/01/31 09:37:52;;;;;;;5.78;1.02;;;;;;;-1.05;77.05;100480.41;4902390;29;20473;-79
2022/01/31 09:40:20;;;;;;;9.32;1.00;;;;;;;-1.13;77.35;100472.28;4914326;29;20111;-79
2022/01/31 09:48:32;;;;;;;5.32;0.88;;;;;;;-1.02;76.72;100481.94;4908253;29;20028;-80
2022/01/31 09:51:10;;;;;;;4.13;0.93;;;;;;;-1.15;76.61;100471.59;4905845;29;20379;-80
2022/01/31 09:53:38;;;;;;;5.78;0.90;;;;;;;-1.05;76.86;100490.97;4897991;29;20036;-80
2022/01/31 09:56:08;;;;;;;6.18;0.90;;;;;;;-1.06;76.76;100475.25;4899882;29;20074;-79
2022/01/31 09:58:34;;;;;;;4.55;1.00;;;;;;;-0.89;76.88;100486.97;4916774;29;20047;-79
2022/01/31 10:01:06;;;;;;;3.38;0.93;;;;;;;-0.77;76.39;100488.56;4902043;29;20044;-81
2022/01/31 10:03:31;;;;;;;3.03;0.95;;;;;;;-0.79;76.57;100494.00;4906328;29;20116;-79
2022/01/31 10:05:58;;;;;;;7.57;0.95;;;;;;;-0.78;76.44;100492.19;4902261;29;20467;-80
2022/01/31 10:08:28;;;;;;;6.00;1.20;;;;;;;-0.82;76.48;100473.13;4897735;29;20107;-80
2022/01/31 10:11:00;;;;;;;8.70;1.25;;;;;;;-0.65;75.72;100492.78;4915235;29;20032;-80
2022/01/31 10:16:29;;;;;;;8.65;1.17;;;;;;;-0.43;75.96;100512.03;4899516;29;20097;-80
2022/01/31 10:19:10;;;;;;;5.28;0.80;;;;;;;-0.38;75.71;100513.31;4906720;29;20036;-80
2022/01/31 10:22:02;;;;;;;5.57;1.10;;;;;;;-0.38;75.17;100507.19;4924579;29;20038;-80
2022/01/31 10:24:29;;;;;;;5.25;0.80;;;;;;;-0.48;75.35;100499.22;4914437;29;20040;-81
2022/01/31 10:26:56;;;;;;;6.00;0.95;;;;;;;-0.31;75.36;100506.50;4907296;29;20474;-80
2022/01/31 10:29:24;;;;;;;5.93;1.20;;;;;;;-0.21;74.85;100525.03;4901576;29;20044;-80
2022/01/31 10:32:10;;;;;;;3.28;0.80;;;;;;;-0.07;74.88;100521.97;4915040;29;20065;-82
2022/01/31 10:34:50;;;;;;;5.28;0.80;;;;;;;-0.01;75.02;100526.72;4916363;29;20033;-83
2022/01/31 10:37:19;;;;;;;7.55;1.08;;;;;;;-0.02;74.92;100524.22;4915695;29;20080;-81
2022/01/31 10:54:16;;;;;;;4.53;0.98;;;;;;;0.17;74.11;100529.53;4901817;29;20100;-81
2022/01/31 10:56:47;;;;;;;5.35;0.98;;;;;;;0.12;74.81;100536.22;4914108;29;20064;-81
2022/01/31 10:59:25;;;;;;;4.65;1.00;;;;;;;0.24;74.94;100537.75;4907561;29;20028;-81
2022/01/31 11:01:53;;;;;;;7.68;1.30;;;;;;;0.21;75.03;100530.09;4908592;29;20408;-81
2022/01/31 11:04:19;;;;;;;3.95;0.90;;;;;;;0.07;74.58;100510.19;4909652;29;20104;-83
2022/01/31 11:06:46;;;;;;;4.88;1.10;;;;;;;0.28;74.95;100531.22;4910112;29;20036;-79
2022/01/31 11:09:15;;;;;;;5.60;1.00;;;;;;;0.27;74.68;100520.78;4900489;29;20021;-84
2022/01/31 11:11:47;;;;;;;6.72;1.20;;;;;;;0.45;74.48;100530.50;4896591;29;20434;-78
2022/01/31 11:14:14;;;;;;;6.45;1.20;;;;;;;0.35;74.74;100510.31;4896883;29;20115;-80
2022/01/31 11:16:42;;;;;;;4.60;0.90;;;;;;;0.38;74.44;100516.16;4900252;29;20668;-79
2022/01/31 11:19:10;;;;;;;4.45;1.10;;;;;;;0.52;74.94;100527.28;4902587;29;20020;-87
2022/01/31 11:21:43;;;;;;;3.58;0.85;;;;;;;-0.19;74.48;100422.63;5125809;23;20052;-84
2022/01/31 11:24:19;;;;;;;7.53;1.15;;;;;;;-0.62;74.07;100357.75;4918032;29;20036;-86
2022/01/31 11:27:08;;;;;;;5.07;0.82;;;;;;;0.23;74.27;100504.31;4909635;29;20067;-80
2022/01/31 11:29:40;;;;;;;4.00;0.68;;;;;;;-0.15;74.15;100455.72;4910607;29;20056;-88
2022/01/31 11:32:06;;;;;;;5.72;0.80;;;;;;;0.44;74.56;100542.06;4920515;29;20087;-86
2022/01/31 11:34:31;;;;;;;4.93;1.02;;;;;;;0.47;74.14;100547.09;4922962;29;20029;-88
2022/01/31 11:36:57;;;;;;;2.90;0.77;;;;;;;0.42;74.01;100538.72;4919352;29;20495;-87
2022/01/31 11:39:23;;;;;;;5.45;0.88;;;;;;;0.36;74.62;100528.69;4924477;29;20032;-89
2022/01/31 11:41:59;;;;;;;4.13;0.70;;;;;;;0.41;74.67;100525.63;4922878;29;20036;-87
2022/01/31 11:57:23;;;;;;;5.25;1.10;;;;;;;-0.72;75.06;100370.13;5897519;23;20045;-87
2022/01/31 11:59:58;;;;;;;11.00;1.20;;;;;;;0.45;74.94;100527.03;4940524;29;20056;-88
2022/01/31 12:02:25;;;;;;;4.90;1.10;;;;;;;0.47;74.66;100531.19;4938625;29;20028;-88
2022/01/31 13:01:51;;;;;;;5.40;1.30;;;;;;;0.12;73.63;100406.59;5028471;23;20091;-90
2022/01/31 13:04:23;;;;;;;6.15;1.23;;;;;;;1.11;73.19;100560.63;4923096;29;20032;-89
2022/01/31 13:06:50;;;;;;;5.97;1.17;;;;;;;1.11;73.39;100579.19;4922172;29;20029;-87
2022/01/31 13:09:37;;;;;;;6.63;1.10;;;;;;;0.59;72.75;100459.56;4920847;29;20028;-87
2022/01/31 13:12:06;;;;;;;5.65;0.82;;;;;;;1.29;72.96;100552.75;4921692;29;20088;-87
2022/01/31 13:14:37;;;;;;;4.43;1.00;;;;;;;1.31;73.08;100562.25;4917101;29;20029;-84
2022/01/31 13:17:16;;;;;;;6.85;1.55;;;;;;;0.89;73.00;100485.84;4937167;29;20088;-85
2022/01/31 13:19:52;;;;;;;4.60;1.05;;;;;;;0.55;72.88;100442.28;4919131;29;20089;-88
2022/01/31 13:22:31;;;;;;;5.03;1.10;;;;;;;0.19;73.04;100397.09;4923295;29;20084;-86
2022/01/31 13:24:59;;;;;;;2.78;0.75;;;;;;;0.31;72.77;100403.06;4923829;29;20024;-87
2022/01/31 13:27:33;;;;;;;5.25;1.10;;;;;;;0.26;73.21;100379.66;4924296;29;20009;-87
2022/01/31 13:30:00;;;;;;;5.80;1.23;;;;;;;0.70;72.50;100465.53;4922108;29;20044;-85
2022/01/31 13:32:31;;;;;;;3.72;1.17;;;;;;;0.63;72.38;100461.78;4920190;29;20063;-86
2022/01/31 13:35:09;;;;;;;8.63;1.85;;;;;;;0.84;73.04;100484.59;4925920;29;20035;-86
2022/01/31 13:37:43;;;;;;;5.00;1.33;;;;;;;1.38;73.42;100576.59;4930474;29;20080;-88
2022/01/31 13:40:33;;;;;;;6.43;0.98;;;;;;;0.38;72.85;100426.16;4922327;29;20016;-89
2022/01/31 13:43:04;;;;;;;4.53;0.98;;;;;;;0.31;71.35;100433.00;4920954;29;20036;-88
2022/01/31 13:45:38;;;;;;;6.75;0.98;;;;;;;0.25;71.52;100432.75;4919457;29;20024;-83
2022/01/31 13:48:19;;;;;;;4.65;0.70;;;;;;;0.49;71.24;100493.16;4920692;29;20036;-86
2022/01/31 13:50:47;;;;;;;4.38;1.10;;;;;;;1.17;71.46;100600.66;4934258;29;20023;-88
2022/01/31 13:53:17;;;;;;;4.47;0.95;;;;;;;1.19;71.47;100581.94;4926334;29;20032;-88
2022/01/31 13:55:49;;;;;;;3.97;1.00;;;;;;;0.56;71.83;100492.44;4919765;29;20387;-88
2022/01/31 13:58:26;;;;;;;5.13;1.10;;;;;;;1.21;71.92;100592.41;4921787;29;20005;-88
2022/01/31 14:00:53;;;;;;;6.47;1.10;;;;;;;0.51;72.28;100477.97;4933174;29;20053;-86
2022/01/31 14:03:20;;;;;;;7.45;1.15;;;;;;;1.12;72.95;100600.22;4904834;29;20092;-85
2022/01/31 14:05:51;;;;;;;6.40;1.00;;;;;;;0.05;73.48;100431.94;4920372;29;20065;-86
2022/01/31 14:08:22;;;;;;;6.50;1.30;;;;;;;0.59;73.88;100544.28;4921078;29;20013;-87
2022/01/31 14:10:48;;;;;;;2.78;1.00;;;;;;;1.05;73.83;100616.84;4923370;29;20032;-87
2022/01/31 14:13:16;;;;;;;3.58;1.02;;;;;;;0.36;74.32;100509.31;4923364;29;20013;-88
2022/01/31 14:18:16;;;;;;;7.88;1.05;;;;;;;0.22;74.79;100514.06;4953952;23;20072;-83
2022/01/31 14:20:43;;;;;;;7.85;1.30;;;;;;;0.87;74.28;100614.09;4922697;29;20044;-86
2022/01/31 14:23:10;;;;;;;4.55;1.38;;;;;;;0.27;74.62;100537.47;4923324;29;20033;-87
2022/01/31 14:25:45;;;;;;;6.28;0.88;;;;;;;0.90;75.26;100617.31;4922268;29;20009;-87
2022/01/31 14:28:19;;;;;;;6.38;1.08;;;;;;;0.19;75.44;100510.88;4922375;29;20017;-87
2022/01/31 14:30:48;;;;;;;4.65;0.90;;;;;;;0.03;75.60;100470.91;4923303;29;20025;-88
2022/01/31 14:33:14;;;;;;;8.00;1.20;;;;;;;0.61;75.43;100551.13;4922911;29;20016;-88
2022/01/31 14:35:40;;;;;;;6.05;1.05;;;;;;;-0.09;75.76;100454.34;5441517;23;20644;-86
2022/01/31 14:38:21;;;;;;;4.05;1.33;;;;;;;0.12;76.49;100499.16;4993400;23;20056;-85
2022/01/31 14:49:05;;;;;;;6.28;1.13;;;;;;;0.15;74.50;100506.84;4921077;29;20541;-86
2022/01/31 14:51:37;;;;;;;6.22;1.00;;;;;;;0.01;73.56;100475.50;4920220;29;20113;-86
2022/01/31 14:54:07;;;;;;;4.07;1.20;;;;;;;0.43;74.09;100528.97;4917971;29;20127;-86
2022/01/31 14:56:34;;;;;;;6.85;1.17;;;;;;;1.02;74.36;100617.97;4919144;29;20029;-86
2022/01/31 14:59:00;;;;;;;6.80;1.33;;;;;;;1.01;74.18;100612.81;4911050;29;20020;-86
2022/01/31 15:01:27;;;;;;;6.95;1.77;;;;;;;-0.02;73.54;100456.28;4913307;29;20025;-86
2022/01/31 15:03:53;;;;;;;4.88;1.80;;;;;;;0.37;73.55;100519.78;4920268;29;20029;-86
2022/01/31 15:06:19;;;;;;;9.63;2.30;;;;;;;0.08;73.85;100458.94;4919862;29;20020;-86
2022/01/31 15:08:46;;;;;;;6.72;2.13;;;;;;;0.64;74.04;100572.00;4918715;29;20025;-86
2022/01/31 15:11:12;;;;;;;5.80;1.88;;;;;;;-0.10;73.10;100460.59;4916481;29;20041;-86
2022/01/31 15:13:39;;;;;;;6.72;2.30;;;;;;;-0.15;73.72;100450.44;4918330;29;20032;-86
2022/01/31 15:16:07;;;;;;;7.57;2.60;;;;;;;0.43;73.37;100545.72;4918750;29;20036;-84
2022/01/31 15:18:38;;;;;;;7.80;2.40;;;;;;;-0.18;74.09;100453.38;4912996;29;20073;-83
2022/01/31 15:21:05;;;;;;;7.85;1.92;;;;;;;0.82;74.09;100624.25;4914884;29;20032;-83
2022/01/31 15:23:38;;;;;;;3.47;1.45;;;;;;;-0.16;73.31;100467.28;4897908;29;20029;-83
2022/01/31 15:26:08;;;;;;;5.28;2.28;;;;;;;0.30;73.51;100533.69;4916356;29;20035;-84
2022/01/31 15:28:35;;;;;;;5.68;1.05;;;;;;;0.31;73.69;100519.50;4915717;29;20021;-84
2022/01/31 15:31:01;;;;;;;4.78;1.50;;;;;;;-0.07;73.39;100479.66;4931651;29;20033;-84
2022/01/31 15:33:26;;;;;;;6.22;1.40;;;;;;;-0.04;74.01;100489.13;4915400;29;20020;-83
2022/01/31 15:35:54;;;;;;;4.03;1.25;;;;;;;-0.15;73.87;100466.31;4915203;29;20047;-84
2022/01/31 15:38:20;;;;;;;4.20;1.23;;;;;;;-0.22;72.89;100459.91;4915744;29;20035;-84
2022/01/31 15:40:46;;;;;;;8.35;1.17;;;;;;;0.16;73.83;100524.38;4916217;29;20028;-83
2022/01/31 15:43:14;;;;;;;5.80;1.00;;;;;;;0.16;73.81;100529.66;4916101;29;20056;-83
2022/01/31 15:45:43;;;;;;;3.78;0.80;;;;;;;0.04;73.73;100507.81;4915048;29;20049;-84
2022/01/31 15:48:10;;;;;;;5.47;0.82;;;;;;;0.17;73.55;100528.72;4913295;29;20036;-83
2022/01/31 15:50:37;;;;;;;5.45;0.95;;;;;;;-0.11;73.75;100483.56;4916449;29;20040;-84
2022/01/31 15:53:03;;;;;;;5.32;1.02;;;;;;;-0.47;73.54;100421.59;4915054;29;20028;-85
2022/01/31 15:55:29;;;;;;;6.43;1.23;;;;;;;0.24;74.44;100553.63;4914449;29;20037;-84
2022/01/31 15:57:55;;;;;;;4.35;0.90;;;;;;;0.14;73.93;100526.34;4914412;29;20051;-84
2022/01/31 16:00:22;;;;;;;5.70;0.90;;;;;;;-0.17;73.75;100478.00;4914799;29;20031;-86
2022/01/31 16:02:49;;;;;;;7.40;1.00;;;;;;;0.04;74.14;100515.75;4914907;29;20032;-85
2022/01/31 16:05:15;;;;;;;6.13;0.90;;;;;;;-0.18;74.77;100473.69;4916506;29;20017;-85
2022/01/31 16:07:42;;;;;;;3.22;0.90;;;;;;;0.35;75.20;100564.06;4918594;29;20032;-86
2022/01/31 16:10:08;;;;;;;4.13;0.80;;;;;;;0.73;75.58;100641.00;4918915;29;20024;-87
2022/01/31 16:12:34;;;;;;;4.10;0.77;;;;;;;-0.36;75.05;100468.25;4919143;29;20028;-84
2022/01/31 16:15:00;;;;;;;3.72;0.88;;;;;;;-0.06;75.58;100521.03;4921305;29;20092;-87
2022/01/31 16:17:27;;;;;;;8.77;1.27;;;;;;;0.72;75.93;100652.56;4919729;29;20041;-87
2022/01/31 16:19:53;;;;;;;6.43;1.13;;;;;;;-0.29;76.25;100501.94;4917099;29;20137;-85
2022/01/31 16:22:19;;;;;;;5.30;1.17;;;;;;;0.71;76.71;100654.38;4916679;29;20024;-85
2022/01/31 16:24:44;;;;;;;13.65;5.18;;;;;;;-0.37;76.09;100488.53;4918280;29;20044;-86
2022/01/31 16:27:11;;;;;;;113.90;50.60;;;;;;;-0.48;76.23;100476.28;4918101;29;20032;-85
2022/01/31 16:29:50;;;;;;;101.18;41.53;;;;;;;-0.45;76.13;100500.78;4918543;29;20031;-87
2022/01/31 16:32:17;;;;;;;299.63;119.80;;;;;;;-0.53;75.61;100498.78;4919530;29;20036;-86
2022/01/31 16:34:43;;;;;;;209.75;79.75;;;;;;;0.01;75.90;100587.44;4918888;29;20035;-85
2022/01/31 16:37:08;;;;;;;599.95;246.77;;;;;;;-0.28;75.88;100547.69;4918586;29;20032;-86
2022/01/31 16:39:34;;;;;;;371.58;141.20;;;;;;;0.58;75.90;100675.00;4918455;29;20039;-85
2022/01/31 16:41:59;;;;;;;186.93;67.82;;;;;;;-0.13;76.01;100585.16;4918862;29;20131;-86
2022/01/31 16:44:25;;;;;;;315.02;119.90;;;;;;;-0.44;76.19;100529.69;4915930;29;20052;-85
2022/01/31 16:46:52;;;;;;;360.27;136.52;;;;;;;-0.50;75.95;100517.88;4926118;29;20063;-86
2022/01/31 16:49:19;;;;;;;378.95;157.10;;;;;;;-0.16;76.31;100580.16;4917987;29;20036;-85
2022/01/31 16:51:47;;;;;;;266.70;108.85;;;;;;;-0.66;76.22;100499.06;4913122;29;20107;-83
2022/01/31 16:54:13;;;;;;;89.72;37.08;;;;;;;0.49;76.05;100686.41;4912686;29;20060;-83
2022/01/31 16:56:39;;;;;;;68.50;27.00;;;;;;;-0.24;76.42;100586.94;4913553;29;20032;-84
2022/01/31 16:59:05;;;;;;;32.83;12.15;;;;;;;0.36;76.30;100679.53;4911580;29;20037;-81
2022/01/31 17:01:32;;;;;;;17.95;5.82;;;;;;;-0.13;76.52;100611.59;4913727;29;20048;-82
2022/01/31 17:03:58;;;;;;;8.65;2.65;;;;;;;-0.27;76.62;100570.50;4906846;29;20053;-83
2022/01/31 17:06:23;;;;;;;11.02;2.70;;;;;;;-0.49;77.03;100545.16;4914487;29;20032;-83
2022/01/31 17:08:49;;;;;;;5.30;1.95;;;;;;;-0.66;76.88;100524.63;4912158;29;20168;-85
2022/01/31 17:11:15;;;;;;;5.13;2.40;;;;;;;-0.05;76.90;100625.84;4912666;29;20093;-84
2022/01/31 17:13:41;;;;;;;9.40;3.92;;;;;;;-0.82;77.17;100493.44;4923882;29;20025;-82
2022/01/31 17:16:07;;;;;;;5.85;2.60;;;;;;;-0.41;76.99;100576.19;4923015;29;20112;-82
2022/01/31 17:18:33;;;;;;;7.43;1.90;;;;;;;-0.83;76.82;100494.38;4912178;29;20051;-81
2022/01/31 17:20:58;;;;;;;5.43;1.60;;;;;;;-0.61;77.16;100533.81;4912190;29;20040;-83
2022/01/31 17:23:24;;;;;;;4.50;1.40;;;;;;;0.21;77.17;100668.53;4910045;29;20420;-83
2022/01/31 17:25:49;;;;;;;9.00;1.40;;;;;;;-0.24;77.37;100581.66;4913892;29;20017;-85
2022/01/31 17:28:16;;;;;;;5.40;1.50;;;;;;;0.12;77.77;100639.41;4918771;29;20029;-86
2022/01/31 17:30:41;;;;;;;6.43;1.50;;;;;;;-1.00;77.63;100467.63;4924558;29;20032;-86
2022/01/31 17:33:07;;;;;;;7.75;2.00;;;;;;;-0.59;77.93;100536.34;4925037;29;20020;-87
2022/01/31 17:35:33;;;;;;;7.00;1.50;;;;;;;-0.91;77.90;100488.94;5103559;23;20048;-87
2022/01/31 17:37:59;;;;;;;7.78;1.50;;;;;;;-0.70;77.75;100521.41;4939081;29;20035;-86
2022/01/31 17:40:24;;;;;;;8.60;2.28;;;;;;;-0.66;78.04;100514.91;4940545;29;20048;-87
2022/01/31 17:42:58;;;;;;;8.88;2.42;;;;;;;0.01;78.04;100626.28;4941583;29;20083;-86
2022/01/31 17:45:27;;;;;;;8.82;2.33;;;;;;;-0.66;78.56;100540.47;5325253;23;20047;-83
2022/01/31 17:47:54;;;;;;;13.02;3.88;;;;;;;-0.79;78.73;100519.59;4935064;29;20028;-83
2022/01/31 17:50:20;;;;;;;17.35;6.38;;;;;;;-0.74;79.16;100525.28;4924981;29;20035;-84
2022/01/31 17:52:46;;;;;;;16.08;6.75;;;;;;;-1.25;79.20;100460.16;4917446;29;20051;-82
2022/01/31 17:55:13;;;;;;;10.35;3.53;;;;;;;-1.25;79.30;100460.16;4922909;29;20064;-88
2022/01/31 17:57:39;;;;;;;8.93;2.78;;;;;;;-0.92;79.45;100527.72;4924719;29;20362;-87
2022/01/31 18:00:05;;;;;;;7.88;1.90;;;;;;;-1.04;79.79;100497.91;4933491;29;20033;-84
2022/01/31 18:02:31;;;;;;;11.35;2.45;;;;;;;-1.22;79.33;100473.09;4934759;29;20042;-86